createdAt,value
2022-11-19T00:00:20.850Z,2.37
2022-11-19T00:03:08.160Z,2.36
2022-11-19T00:05:55.140Z,2.34
2022-11-19T00:08:42.999Z,2.26
2022-11-19T00:11:51.047Z,2.21
2022-11-19T00:14:38.496Z,2.26
2022-11-19T00:17:25.672Z,2.16
2022-11-19T00:20:14.383Z,2.15
2022-11-19T00:23:02.131Z,2.19
2022-11-19T00:25:49.615Z,2.19
2022-11-19T00:28:38.218Z,2.17
2022-11-19T00:31:29.386Z,2.12
2022-11-19T00:34:16.589Z,2.07
2022-11-19T00:37:03.943Z,2.04
2022-11-19T00:39:51.216Z,2.06
2022-11-19T00:42:38.315Z,2.03
2022-11-19T00:45:27.008Z,1.97
2022-11-19T00:48:14.069Z,1.88
2022-11-19T00:51:01.600Z,1.88
2022-11-19T00:53:49.252Z,1.88
2022-11-19T00:56:36.438Z,1.85
2022-11-19T00:59:23.954Z,1.87
2022-11-19T01:02:12.503Z,1.88
2022-11-19T01:05:00.140Z,1.81
2022-11-19T01:07:46.964Z,1.82
2022-11-19T01:10:35.100Z,1.80
2022-11-19T01:17:31.765Z,1.75
2022-11-19T01:20:19.230Z,1.71
2022-11-19T01:23:06.489Z,1.71
2022-11-19T01:25:53.696Z,1.67
2022-11-19T01:28:41.281Z,1.66
2022-11-19T01:31:30.525Z,1.62
2022-11-19T01:34:18.832Z,1.60
2022-11-19T01:37:06.299Z,1.54
2022-11-19T01:39:53.486Z,1.55
2022-11-19T01:46:15.290Z,1.50
2022-11-19T01:49:08.197Z,1.48
2022-11-19T01:52:01.730Z,1.44
2022-11-19T01:54:54.704Z,1.39
2022-11-19T01:57:42.247Z,1.39
2022-11-19T02:00:30.262Z,1.36
2022-11-19T02:03:20.132Z,1.34
2022-11-19T02:06:07.981Z,1.29
2022-11-19T02:08:56.924Z,1.28
2022-11-19T02:12:02.790Z,1.24
2022-11-19T02:15:08.303Z,1.23
2022-11-19T02:18:31.457Z,1.21
2022-11-19T02:21:30.152Z,1.18
2022-11-19T02:24:45.905Z,1.13
2022-11-19T02:27:59.327Z,1.13
2022-11-19T02:30:51.671Z,1.10
2022-11-19T02:33:45.662Z,1.10
2022-11-19T02:36:39.452Z,1.08
2022-11-19T02:39:31.258Z,1.06
2022-11-19T02:42:24.272Z,1.01
2022-11-19T07:46:10.473Z,1.12
2022-11-19T07:48:59.091Z,1.23
2022-11-19T07:51:45.770Z,1.28
2022-11-19T07:54:32.898Z,1.37
2022-11-19T07:57:19.718Z,1.46
2022-11-19T08:00:08.212Z,1.55
2022-11-19T08:03:00.489Z,1.61
2022-11-19T08:05:47.706Z,1.67
2022-11-19T08:08:34.707Z,1.77
2022-11-19T08:11:22.345Z,1.80
2022-11-19T08:14:09.865Z,1.88
2022-11-19T08:17:14.390Z,1.96
2022-11-19T08:20:02.480Z,2.05
2022-11-19T08:22:49.855Z,2.20
2022-11-19T08:25:37.552Z,2.38
2022-11-19T08:28:25.044Z,2.48
2022-11-19T08:31:12.216Z,2.63
2022-11-19T08:33:59.574Z,2.73
2022-11-19T08:36:47.811Z,2.85
2022-11-19T08:39:34.720Z,3.04
2022-11-19T08:42:38.846Z,3.12
2022-11-19T08:45:26.976Z,3.32
2022-11-19T08:48:15.635Z,3.56
2022-11-19T08:51:04.905Z,3.76
2022-11-19T08:53:57.451Z,3.95
2022-11-19T08:56:54.060Z,4.14
2022-11-19T08:59:41.642Z,4.39
2022-11-19T09:02:30.018Z,4.62
2022-11-19T09:05:17.086Z,4.78
2022-11-19T09:08:05.037Z,4.85
2022-11-19T09:10:52.987Z,4.84
2022-11-19T09:13:40.858Z,4.84
2022-11-19T09:16:27.396Z,5.08
2022-11-19T09:19:14.707Z,5.12
2022-11-19T09:22:01.554Z,5.25
2022-11-19T09:24:49.233Z,5.28
2022-11-19T09:27:38.038Z,5.18
2022-11-19T09:30:25.097Z,5.18
2022-11-19T09:33:11.817Z,5.25
2022-11-19T09:35:59.395Z,5.30
2022-11-19T09:38:46.922Z,5.36
2022-11-19T09:41:48.439Z,5.37
2022-11-19T09:45:01.250Z,5.50
2022-11-19T09:48:10.677Z,5.55
2022-11-19T09:51:01.475Z,5.46
2022-11-19T09:53:54.317Z,5.55
2022-11-19T09:56:44.098Z,5.60
2022-11-19T09:59:34.690Z,5.60
2022-11-19T10:02:24.076Z,5.75
2022-11-19T10:05:15.891Z,5.80
2022-11-19T10:08:18.395Z,5.88
2022-11-19T10:11:21.973Z,5.96
2022-11-19T10:14:21.903Z,6.00
2022-11-19T10:17:22.564Z,5.99
2022-11-19T10:20:32.976Z,5.99
2022-11-19T10:23:24.567Z,5.88
2022-11-19T10:26:16.560Z,5.67
2022-11-19T10:29:15.285Z,5.80
2022-11-19T10:32:19.761Z,5.70
2022-11-19T10:35:10.526Z,5.74
2022-11-19T10:38:02.722Z,5.90
2022-11-19T10:40:54.750Z,6.03
2022-11-19T10:43:48.726Z,5.89
2022-11-19T10:46:36.284Z,5.80
2022-11-19T10:49:23.883Z,5.85
2022-11-19T10:52:24.764Z,5.89
2022-11-19T10:55:22.362Z,5.84
2022-11-19T10:58:15.414Z,5.81
2022-11-19T11:01:05.385Z,5.80
2022-11-19T11:04:01.025Z,5.86
2022-11-19T11:06:53.394Z,6.01
2022-11-19T11:09:42.843Z,6.10
2022-11-19T11:12:49.000Z,6.31
2022-11-19T11:15:36.569Z,6.40
2022-11-19T11:18:27.934Z,6.40
2022-11-19T11:21:32.547Z,6.22
2022-11-19T11:24:19.433Z,6.37
2022-11-19T11:27:19.936Z,6.66
2022-11-19T11:30:17.644Z,6.64
2022-11-19T11:33:27.503Z,6.74
2022-11-19T11:36:17.179Z,6.85
2022-11-19T11:39:06.666Z,7.00
2022-11-19T11:42:05.527Z,7.09
2022-11-19T11:44:55.943Z,7.19
2022-11-19T11:47:44.436Z,7.18
2022-11-19T11:50:31.963Z,7.06
2022-11-19T11:53:30.084Z,7.21
2022-11-19T11:56:22.409Z,7.32
2022-11-19T11:59:22.539Z,7.33
2022-11-19T12:02:21.004Z,7.36
2022-11-19T12:05:18.489Z,7.41
2022-11-19T12:08:08.138Z,7.50
2022-11-19T12:11:03.639Z,7.58
2022-11-19T12:14:06.751Z,7.50
2022-11-19T12:17:18.945Z,7.58
2022-11-19T12:20:29.808Z,7.71
2022-11-19T12:23:30.355Z,7.76
2022-11-19T12:26:24.834Z,7.89
2022-11-19T12:29:21.247Z,7.95
2022-11-19T12:32:24.693Z,7.78
2022-11-19T12:35:50.669Z,8.03
2022-11-19T12:38:50.494Z,8.07
2022-11-19T12:42:05.650Z,8.10
2022-11-19T12:45:02.421Z,7.97
2022-11-19T12:48:11.811Z,7.74
2022-11-19T12:51:04.434Z,7.96
2022-11-19T12:54:08.305Z,8.01
2022-11-19T12:57:09.868Z,8.07
2022-11-19T13:00:14.911Z,8.09
2022-11-19T13:03:12.569Z,8.13
2022-11-19T13:06:06.542Z,8.02
2022-11-19T13:09:00.186Z,7.96
2022-11-19T13:11:53.539Z,7.68
2022-11-19T13:14:43.701Z,7.69
2022-11-19T13:17:34.545Z,7.75
2022-11-19T13:20:26.986Z,7.59
2022-11-19T13:23:22.234Z,7.71
2022-11-19T13:26:14.558Z,7.78
2022-11-19T13:29:19.943Z,7.82
2022-11-19T13:32:16.941Z,7.85
2022-11-19T13:35:15.038Z,7.89
2022-11-19T13:38:08.769Z,7.91
2022-11-19T13:41:05.735Z,7.84
2022-11-19T13:44:13.688Z,7.81
2022-11-19T13:47:02.006Z,7.71
2022-11-19T13:49:53.449Z,7.63
2022-11-19T13:52:47.518Z,7.51
2022-11-19T13:55:37.716Z,7.55
2022-11-19T13:58:32.865Z,7.52
2022-11-19T14:01:39.968Z,7.39
2022-11-19T14:04:44.128Z,7.36
2022-11-19T14:07:56.722Z,7.35
2022-11-19T14:10:56.739Z,7.20
2022-11-19T14:14:34.629Z,7.22
2022-11-19T14:17:52.881Z,7.15
2022-11-19T14:21:01.950Z,7.13
2022-11-19T14:24:08.861Z,7.01
2022-11-19T14:27:20.512Z,7.03
2022-11-19T14:30:15.542Z,6.90
2022-11-19T14:33:02.327Z,6.91
2022-11-19T14:35:50.924Z,6.76
2022-11-19T14:38:43.200Z,6.78
2022-11-19T14:41:35.773Z,6.73
2022-11-19T14:44:36.026Z,6.73
2022-11-19T14:47:38.499Z,6.70
2022-11-19T14:50:28.685Z,6.66
2022-11-19T14:53:23.954Z,6.66
2022-11-19T14:56:14.442Z,6.60
2022-11-19T14:59:10.262Z,6.53
2022-11-19T15:02:02.559Z,6.47
2022-11-19T15:05:00.708Z,6.36
2022-11-19T15:07:55.836Z,6.27
2022-11-19T15:10:49.520Z,6.19
2022-11-19T15:13:39.278Z,6.12
2022-11-19T15:16:28.618Z,6.03
2022-11-19T15:19:31.616Z,5.94
2022-11-19T15:22:38.851Z,5.78
2022-11-19T15:25:40.289Z,5.68
2022-11-19T15:28:42.875Z,5.61
2022-11-19T15:31:56.526Z,5.51
2022-11-19T15:35:17.201Z,5.42
2022-11-19T15:38:18.551Z,5.34
2022-11-19T15:41:08.749Z,5.27
2022-11-19T15:43:58.633Z,5.18
2022-11-19T15:46:51.880Z,5.10
2022-11-19T15:49:43.961Z,5.03
2022-11-19T15:52:37.843Z,4.97
2022-11-19T15:55:31.462Z,4.91
2022-11-19T15:58:38.525Z,4.85
2022-11-19T16:04:45.492Z,4.77
2022-11-19T16:07:33.880Z,4.74
2022-11-19T16:10:36.676Z,4.70
2022-11-19T16:13:43.522Z,4.66
2022-11-19T16:16:53.659Z,4.61
2022-11-19T16:19:41.334Z,4.58
2022-11-19T16:22:28.426Z,4.55
2022-11-19T16:25:20.340Z,4.53
2022-11-19T16:28:13.370Z,4.49
2022-11-19T16:31:02.717Z,4.46
2022-11-19T16:33:54.766Z,4.41
2022-11-19T16:36:48.122Z,4.39
2022-11-19T16:39:37.176Z,4.37
2022-11-19T16:42:28.383Z,4.33
2022-11-19T16:45:21.658Z,4.28
2022-11-19T16:48:45.056Z,4.27
2022-11-19T16:51:40.655Z,4.25
2022-11-19T16:54:49.747Z,4.18
2022-11-19T16:57:36.701Z,4.16
2022-11-19T17:00:28.361Z,4.12
2022-11-19T17:03:30.612Z,4.08
2022-11-19T17:06:25.677Z,4.07
2022-11-19T17:09:31.894Z,4.07
2022-11-19T17:12:27.728Z,4.07
2022-11-19T17:15:39.175Z,4.04
2022-11-19T17:18:30.485Z,4.04
2022-11-19T17:21:25.732Z,3.99
2022-11-19T17:24:14.112Z,3.99
2022-11-19T17:27:01.902Z,4.00
2022-11-19T17:29:48.983Z,4.02
2022-11-19T17:32:40.241Z,4.00
2022-11-19T17:35:35.201Z,3.99
2022-11-19T17:38:24.770Z,3.99
2022-11-19T17:41:15.473Z,3.96
2022-11-19T17:44:20.105Z,3.93
2022-11-19T17:47:22.341Z,3.91
2022-11-19T17:50:11.619Z,3.88
2022-11-19T17:52:58.701Z,3.82
2022-11-19T17:55:48.430Z,3.79
2022-11-19T17:58:35.459Z,3.76
2022-11-19T18:01:23.692Z,3.74
2022-11-19T18:04:12.840Z,3.71
2022-11-19T18:07:01.148Z,3.67
2022-11-19T18:09:48.515Z,3.62
2022-11-19T18:12:35.442Z,3.60
2022-11-19T18:15:22.783Z,3.59
2022-11-19T18:18:09.487Z,3.55
2022-11-19T18:21:01.980Z,3.51
2022-11-19T18:23:53.046Z,3.43
2022-11-19T18:26:40.505Z,3.40
2022-11-19T18:29:30.999Z,3.37
2022-11-19T18:32:18.361Z,3.34
2022-11-19T18:35:06.312Z,3.32
2022-11-19T18:37:53.486Z,3.28
2022-11-19T18:40:42.284Z,3.27
2022-11-19T18:43:46.949Z,3.25
2022-11-19T18:46:33.960Z,3.24
2022-11-19T18:49:21.140Z,3.22
2022-11-19T18:52:10.058Z,3.19
2022-11-19T18:54:57.409Z,3.19
2022-11-19T18:57:45.270Z,3.17
2022-11-19T19:00:32.526Z,3.15
2022-11-19T19:03:19.749Z,3.15
2022-11-19T19:06:09.181Z,3.11
2022-11-19T19:08:55.876Z,3.11
2022-11-19T19:12:00.725Z,3.10
2022-11-19T19:14:51.655Z,3.09
2022-11-19T19:17:39.169Z,3.06
2022-11-19T19:20:26.046Z,3.02
2022-11-19T19:23:12.860Z,3.02
2022-11-19T19:25:59.787Z,3.04
2022-11-19T19:28:50.262Z,3.06
2022-11-19T19:31:38.439Z,3.09
2022-11-19T19:34:25.731Z,3.14
2022-11-19T19:37:13.170Z,3.19
2022-11-19T19:40:00.392Z,3.22
2022-11-19T19:42:47.235Z,3.25
2022-11-19T19:45:35.453Z,3.26
2022-11-19T19:48:24.498Z,3.27
2022-11-19T19:51:13.418Z,3.32
2022-11-19T19:54:00.512Z,3.37
2022-11-19T19:56:47.755Z,3.42
2022-11-19T19:59:34.920Z,3.49
2022-11-19T20:02:22.704Z,3.55
2022-11-19T20:05:11.363Z,3.59
2022-11-19T20:07:58.563Z,3.67
2022-11-19T20:10:46.275Z,3.72
2022-11-19T20:13:33.328Z,3.78
2022-11-19T20:16:21.897Z,3.82
2022-11-19T20:19:16.085Z,3.83
2022-11-19T20:22:05.280Z,3.86
2022-11-19T20:24:51.908Z,3.88
2022-11-19T20:27:38.773Z,3.93
2022-11-19T20:30:25.607Z,3.94
2022-11-19T20:33:12.702Z,3.92
2022-11-19T20:35:59.851Z,4.01
2022-11-19T20:38:48.384Z,4.02
2022-11-19T20:41:53.535Z,4.02
2022-11-19T20:44:40.976Z,4.06
2022-11-19T20:47:28.201Z,4.06
2022-11-19T20:50:15.522Z,4.04
2022-11-19T20:53:02.451Z,4.06
2022-11-19T20:56:04.621Z,4.02
2022-11-19T20:58:51.977Z,4.02
2022-11-19T21:01:39.616Z,3.97
2022-11-19T21:04:28.465Z,3.92
2022-11-19T21:07:15.981Z,3.92
2022-11-19T21:10:07.665Z,3.90
2022-11-19T21:13:02.286Z,3.89
2022-11-19T21:15:49.084Z,3.68
2022-11-19T21:18:38.072Z,3.84
2022-11-19T21:21:26.223Z,3.86
2022-11-19T21:24:13.656Z,3.89
2022-11-19T21:27:00.506Z,3.85
2022-11-19T21:29:49.454Z,3.77
2022-11-19T21:32:36.175Z,3.70
2022-11-19T21:35:23.647Z,3.70
2022-11-19T21:38:12.341Z,3.67
2022-11-19T21:40:59.980Z,3.62
2022-11-19T21:43:47.199Z,3.55
2022-11-19T21:46:36.345Z,3.48
2022-11-19T21:49:23.703Z,3.41
2022-11-19T21:52:11.147Z,3.29
2022-11-19T21:54:57.975Z,3.26
2022-11-19T21:57:45.281Z,3.21
2022-11-19T22:00:32.140Z,3.20
2022-11-19T22:03:20.539Z,3.16
2022-11-19T22:06:09.615Z,3.15
2022-11-19T22:08:56.602Z,3.15
2022-11-19T22:11:43.277Z,3.12
2022-11-19T22:14:30.190Z,3.07
2022-11-19T22:17:17.153Z,3.07
2022-11-19T22:20:07.293Z,3.02
2022-11-19T22:22:55.557Z,3.04
2022-11-19T22:25:42.852Z,3.04
2022-11-19T22:28:29.746Z,3.03
2022-11-19T22:31:17.138Z,3.06
2022-11-19T22:34:03.967Z,3.05
2022-11-19T22:36:52.932Z,2.96
2022-11-19T22:39:39.648Z,3.01
2022-11-19T22:42:26.946Z,3.05
2022-11-19T22:45:14.202Z,3.07
2022-11-19T22:48:01.393Z,3.04
2022-11-19T22:50:48.254Z,3.04
2022-11-19T22:53:37.839Z,2.99
2022-11-19T22:56:27.341Z,2.85
2022-11-19T22:59:14.442Z,2.80
2022-11-19T23:02:01.101Z,2.76
2022-11-19T23:04:48.418Z,2.70
2022-11-19T23:07:35.240Z,2.66
2022-11-19T23:10:23.895Z,2.61
2022-11-19T23:13:29.613Z,2.56
2022-11-19T23:16:18.768Z,2.54
2022-11-19T23:19:06.198Z,2.52
2022-11-19T23:21:53.421Z,2.49
2022-11-19T23:24:40.285Z,2.45
2022-11-19T23:27:28.687Z,2.39
2022-11-19T23:30:15.721Z,2.34
2022-11-19T23:33:03.015Z,2.28
2022-11-19T23:35:49.898Z,2.28
2022-11-19T23:38:37.244Z,2.27
2022-11-19T23:41:24.949Z,2.26
2022-11-19T23:44:13.893Z,2.21
2022-11-19T23:47:04.561Z,2.21
2022-11-19T23:49:51.675Z,2.17
2022-11-19T23:52:38.740Z,2.10
2022-11-19T23:55:25.625Z,2.09
2022-11-19T23:58:12.509Z,2.07
